Terminal Aerodrome Forecast
Issued by NWS

Home | Current Version | Previous Version | Text Only | Print | Product List | Glossary On
Versions: 1 2 3 4 5 6 7 8 9 10 11 12 13 14 15 16 17 18 19 20 21
238
FTUS45 KTFX 281927 AAA
TAFCTB
TAF AMD
KCTB 281927Z 2819/2918 12011KT P6SM VCSH SCT020 OVC035
      TEMPO 2820/2824 -SHRA BKN020
     FM290100 13007KT P6SM SCT025 BKN050
     FM290500 VRB05KT P6SM VCFG SCT007 OVC012
     FM291500 15008KT P6SM SCT015 BKN025=

USA.gov is the U.S. government's official web portal to all federal, state and local government web resources and services.